sensor_id;sensor_type;location;lat;lon;timestamp;pressure;altitude;pressure_sealevel;temperature;humidity
63088;BME280;49173;43.164;27.786;2023-09-30T00:00:01;100595.50;;;19.08;49.24
63088;BME280;49173;43.164;27.786;2023-09-30T00:02:27;100601.09;;;19.06;49.25
63088;BME280;49173;43.164;27.786;2023-09-30T00:04:53;100602.94;;;19.06;49.43
63088;BME280;49173;43.164;27.786;2023-09-30T00:07:19;100595.50;;;19.08;49.14
63088;BME280;49173;43.164;27.786;2023-09-30T00:09:45;100592.31;;;19.03;48.98
63088;BME280;49173;43.164;27.786;2023-09-30T00:12:11;100597.16;;;18.99;48.78
63088;BME280;49173;43.164;27.786;2023-09-30T00:14:36;100591.59;;;19.01;48.63
63088;BME280;49173;43.164;27.786;2023-09-30T00:17:03;100590.59;;;19.02;48.76
63088;BME280;49173;43.164;27.786;2023-09-30T00:19:29;100596.63;;;19.05;48.29
63088;BME280;49173;43.164;27.786;2023-09-30T00:21:55;100590.19;;;19.06;48.29
63088;BME280;49173;43.164;27.786;2023-09-30T00:24:21;100588.63;;;19.04;49.00
63088;BME280;49173;43.164;27.786;2023-09-30T00:26:46;100592.31;;;19.03;48.49
63088;BME280;49173;43.164;27.786;2023-09-30T00:29:12;100589.59;;;19.03;48.49
63088;BME280;49173;43.164;27.786;2023-09-30T00:31:38;100591.59;;;19.01;48.47
63088;BME280;49173;43.164;27.786;2023-09-30T00:34:04;100600.03;;;18.98;48.19
63088;BME280;49173;43.164;27.786;2023-09-30T00:36:30;100600.16;;;18.96;48.63
63088;BME280;49173;43.164;27.786;2023-09-30T00:38:56;100597.69;;;18.93;48.74
63088;BME280;49173;43.164;27.786;2023-09-30T00:41:22;100598.31;;;18.97;48.59
63088;BME280;49173;43.164;27.786;2023-09-30T00:43:48;100589.28;;;18.96;48.71
63088;BME280;49173;43.164;27.786;2023-09-30T00:46:32;100593.84;;;18.96;49.03
63088;BME280;49173;43.164;27.786;2023-09-30T00:48:59;100593.84;;;18.96;48.93
63088;BME280;49173;43.164;27.786;2023-09-30T00:51:26;100589.28;;;18.96;49.01
63088;BME280;49173;43.164;27.786;2023-09-30T00:53:56;100590.25;;;18.95;48.15
63088;BME280;49173;43.164;27.786;2023-09-30T00:56:24;100588.41;;;18.96;48.54
63088;BME280;49173;43.164;27.786;2023-09-30T00:58:51;100588.41;;;18.96;48.61
63088;BME280;49173;43.164;27.786;2023-09-30T01:01:19;100596.31;;;18.99;48.67
63088;BME280;49173;43.164;27.786;2023-09-30T01:03:48;100590.88;;;18.99;49.08
63088;BME280;49173;43.164;27.786;2023-09-30T01:06:14;100595.69;;;18.95;48.72
63088;BME280;49173;43.164;27.786;2023-09-30T01:08:40;100596.56;;;18.96;49.06
63088;BME280;49173;43.164;27.786;2023-09-30T01:11:07;100594.59;;;18.98;48.65
63088;BME280;49173;43.164;27.786;2023-09-30T01:13:34;100585.56;;;18.97;48.93
63088;BME280;49173;43.164;27.786;2023-09-30T01:16:08;100589.88;;;19.00;48.26
63088;BME280;49173;43.164;27.786;2023-09-30T01:18:38;100587.16;;;19.00;48.44
63088;BME280;49173;43.164;27.786;2023-09-30T01:21:05;100590.88;;;18.99;48.47
63088;BME280;49173;43.164;27.786;2023-09-30T01:23:32;100590.72;;;19.00;48.33
63088;BME280;49173;43.164;27.786;2023-09-30T01:26:10;100595.91;;;19.03;48.55
63088;BME280;49173;43.164;27.786;2023-09-30T01:28:40;100590.47;;;19.03;48.45
63088;BME280;49173;43.164;27.786;2023-09-30T01:31:06;100592.31;;;19.03;48.66
63088;BME280;49173;43.164;27.786;2023-09-30T01:33:32;100591.13;;;18.96;48.51
63088;BME280;49173;43.164;27.786;2023-09-30T01:36:00;100590.91;;;18.87;48.90
63088;BME280;49173;43.164;27.786;2023-09-30T01:38:26;100598.63;;;18.82;48.96
63088;BME280;49173;43.164;27.786;2023-09-30T01:40:52;100587.63;;;18.84;48.52
63088;BME280;49173;43.164;27.786;2023-09-30T01:43:19;100584.56;;;18.77;48.71
63088;BME280;49173;43.164;27.786;2023-09-30T01:45:45;100594.97;;;18.72;48.75
63088;BME280;49173;43.164;27.786;2023-09-30T01:48:11;100595.47;;;18.66;48.94
63088;BME280;49173;43.164;27.786;2023-09-30T01:50:38;100595.84;;;18.61;49.28
63088;BME280;49173;43.164;27.786;2023-09-30T01:53:04;100591.06;;;18.54;49.01
63088;BME280;49173;43.164;27.786;2023-09-30T01:55:32;100593.53;;;18.46;49.24
63088;BME280;49173;43.164;27.786;2023-09-30T01:57:58;100596.41;;;18.44;49.28
63088;BME280;49173;43.164;27.786;2023-09-30T02:00:24;100592.09;;;18.42;49.56
63088;BME280;49173;43.164;27.786;2023-09-30T02:02:50;100589.63;;;18.38;49.44
63088;BME280;49173;43.164;27.786;2023-09-30T02:05:16;100591.63;;;18.36;49.55
63088;BME280;49173;43.164;27.786;2023-09-30T02:07:42;100590.03;;;18.34;49.64
63088;BME280;49173;43.164;27.786;2023-09-30T02:10:09;100600.13;;;18.32;49.61
63088;BME280;49173;43.164;27.786;2023-09-30T02:12:36;100594.13;;;18.28;49.26
63088;BME280;49173;43.164;27.786;2023-09-30T02:15:03;100594.38;;;18.25;49.71
63088;BME280;49173;43.164;27.786;2023-09-30T02:17:29;100599.91;;;18.24;49.48
63088;BME280;49173;43.164;27.786;2023-09-30T02:19:55;100588.47;;;18.20;49.47
63088;BME280;49173;43.164;27.786;2023-09-30T02:22:21;100593.28;;;18.17;49.50
63088;BME280;49173;43.164;27.786;2023-09-30T02:24:46;100587.25;;;18.13;49.61
63088;BME280;49173;43.164;27.786;2023-09-30T02:27:14;100590.19;;;18.10;49.48
63088;BME280;49173;43.164;27.786;2023-09-30T02:29:39;100595.63;;;18.10;49.29
63088;BME280;49173;43.164;27.786;2023-09-30T02:32:05;100589.47;;;18.08;49.02
63088;BME280;49173;43.164;27.786;2023-09-30T02:34:31;100590.59;;;18.05;49.29
63088;BME280;49173;43.164;27.786;2023-09-30T02:36:57;100588.75;;;18.06;48.91
63088;BME280;49173;43.164;27.786;2023-09-30T02:39:22;100579.59;;;18.07;49.24
63088;BME280;49173;43.164;27.786;2023-09-30T02:41:48;100582.56;;;18.04;49.16
63088;BME280;49173;43.164;27.786;2023-09-30T02:44:15;100580.09;;;18.01;49.31
63088;BME280;49173;43.164;27.786;2023-09-30T02:46:41;100582.31;;;18.07;49.32
63088;BME280;49173;43.164;27.786;2023-09-30T02:49:07;100583.78;;;18.11;49.31
63088;BME280;49173;43.164;27.786;2023-09-30T02:51:33;100583.19;;;18.07;49.50
63088;BME280;49173;43.164;27.786;2023-09-30T02:53:59;100582.81;;;18.01;49.36
63088;BME280;49173;43.164;27.786;2023-09-30T02:56:25;100588.97;;;18.03;49.53
63088;BME280;49173;43.164;27.786;2023-09-30T02:58:52;100583.56;;;18.03;49.59
63088;BME280;49173;43.164;27.786;2023-09-30T03:01:18;100583.09;;;17.98;49.56
63088;BME280;49173;43.164;27.786;2023-09-30T03:03:44;100585.03;;;17.96;49.58
63088;BME280;49173;43.164;27.786;2023-09-30T03:06:10;100583.31;;;17.95;49.79
63088;BME280;49173;43.164;27.786;2023-09-30T03:08:36;100589.03;;;17.92;49.90
63088;BME280;49173;43.164;27.786;2023-09-30T03:11:02;100585.81;;;17.87;50.11
63088;BME280;49173;43.164;27.786;2023-09-30T03:13:29;100592.47;;;17.82;50.21
63088;BME280;49173;43.164;27.786;2023-09-30T03:15:56;100583.47;;;17.82;49.85
63088;BME280;49173;43.164;27.786;2023-09-30T03:18:23;100582.50;;;17.83;50.08
63088;BME280;49173;43.164;27.786;2023-09-30T03:20:58;100584.44;;;17.81;50.48
63088;BME280;49173;43.164;27.786;2023-09-30T03:23:28;100579.03;;;17.81;50.12
63088;BME280;49173;43.164;27.786;2023-09-30T03:25:59;100584.72;;;17.78;50.62
63088;BME280;49173;43.164;27.786;2023-09-30T03:28:25;100586.81;;;17.74;50.75
63088;BME280;49173;43.164;27.786;2023-09-30T03:30:52;100586.22;;;17.71;50.77
63088;BME280;49173;43.164;27.786;2023-09-30T03:33:17;100577.41;;;17.67;50.66
63088;BME280;49173;43.164;27.786;2023-09-30T03:35:43;100589.03;;;17.69;50.79
63088;BME280;49173;43.164;27.786;2023-09-30T03:38:11;100584.56;;;17.68;50.82
63088;BME280;49173;43.164;27.786;2023-09-30T03:40:41;100591.72;;;17.69;50.72
63088;BME280;49173;43.164;27.786;2023-09-30T03:43:16;100585.53;;;17.67;51.02
63088;BME280;49173;43.164;27.786;2023-09-30T03:45:42;100585.16;;;17.61;51.03
63088;BME280;49173;43.164;27.786;2023-09-30T03:48:07;100589.88;;;17.58;50.99
63088;BME280;49173;43.164;27.786;2023-09-30T03:50:35;100591.97;;;17.55;51.14
63088;BME280;49173;43.164;27.786;2023-09-30T03:53:02;100584.81;;;17.54;51.22
63088;BME280;49173;43.164;27.786;2023-09-30T03:55:28;100585.94;;;17.51;51.12
63088;BME280;49173;43.164;27.786;2023-09-30T03:57:55;100591.34;;;17.51;51.14
63088;BME280;49173;43.164;27.786;2023-09-30T04:00:21;100588.75;;;17.50;51.28
63088;BME280;49173;43.164;27.786;2023-09-30T04:02:48;100583.22;;;17.51;51.39
63088;BME280;49173;43.164;27.786;2023-09-30T04:05:16;100587.50;;;17.54;51.31
63088;BME280;49173;43.164;27.786;2023-09-30T04:07:43;100582.00;;;17.55;51.31
63088;BME280;49173;43.164;27.786;2023-09-30T04:10:09;100579.00;;;17.58;51.51
63088;BME280;49173;43.164;27.786;2023-09-30T04:12:35;100582.22;;;17.64;51.26
63088;BME280;49173;43.164;27.786;2023-09-30T04:15:01;100590.25;;;17.65;51.18
63088;BME280;49173;43.164;27.786;2023-09-30T04:17:29;100587.66;;;17.64;51.48
63088;BME280;49173;43.164;27.786;2023-09-30T04:19:54;100582.69;;;17.69;51.64
63088;BME280;49173;43.164;27.786;2023-09-30T04:22:20;100587.25;;;17.68;51.91
63088;BME280;49173;43.164;27.786;2023-09-30T04:24:50;100582.59;;;17.70;51.65
63088;BME280;49173;43.164;27.786;2023-09-30T04:27:17;100584.09;;;17.74;51.51
63088;BME280;49173;43.164;27.786;2023-09-30T04:29:43;100584.84;;;17.76;51.47
63088;BME280;49173;43.164;27.786;2023-09-30T04:32:09;100581.88;;;17.79;51.44
63088;BME280;49173;43.164;27.786;2023-09-30T04:34:35;100585.31;;;17.81;51.41
63088;BME280;49173;43.164;27.786;2023-09-30T04:37:01;100588.78;;;17.83;51.71
63088;BME280;49173;43.164;27.786;2023-09-30T04:39:27;100589.25;;;17.89;51.66
63088;BME280;49173;43.164;27.786;2023-09-30T04:41:53;100591.47;;;17.95;51.74
63088;BME280;49173;43.164;27.786;2023-09-30T04:44:20;100589.38;;;17.98;51.60
63088;BME280;49173;43.164;27.786;2023-09-30T04:46:48;100604.69;;;17.99;51.43
63088;BME280;49173;43.164;27.786;2023-09-30T04:49:14;100596.91;;;18.06;51.54
63088;BME280;49173;43.164;27.786;2023-09-30T04:51:40;100598.63;;;18.07;51.38
63088;BME280;49173;43.164;27.786;2023-09-30T04:54:06;100597.50;;;18.09;51.65
63088;BME280;49173;43.164;27.786;2023-09-30T04:56:35;100594.41;;;18.14;51.61
63088;BME280;49173;43.164;27.786;2023-09-30T04:59:01;100594.75;;;18.21;51.54
63088;BME280;49173;43.164;27.786;2023-09-30T05:01:29;100600.41;;;18.29;51.19
63088;BME280;49173;43.164;27.786;2023-09-30T05:03:54;100607.78;;;18.38;51.01
63088;BME280;49173;43.164;27.786;2023-09-30T05:06:35;100605.28;;;18.46;50.82
63088;BME280;49173;43.164;27.786;2023-09-30T05:09:01;100601.94;;;18.54;50.77
63088;BME280;49173;43.164;27.786;2023-09-30T05:11:28;100602.63;;;18.67;50.59
63088;BME280;49173;43.164;27.786;2023-09-30T05:13:53;100600.72;;;18.79;50.71
63088;BME280;49173;43.164;27.786;2023-09-30T05:16:20;100602.75;;;18.98;50.29
63088;BME280;49173;43.164;27.786;2023-09-30T05:18:46;100614.28;;;19.11;50.05
63088;BME280;49173;43.164;27.786;2023-09-30T05:21:15;100603.06;;;19.25;49.65
63088;BME280;49173;43.164;27.786;2023-09-30T05:23:41;100604.00;;;19.45;49.09
63088;BME280;49173;43.164;27.786;2023-09-30T05:26:06;100603.88;;;19.67;48.66
63088;BME280;49173;43.164;27.786;2023-09-30T05:28:32;100605.94;;;19.85;48.35
63088;BME280;49173;43.164;27.786;2023-09-30T05:30:58;100612.56;;;19.92;48.05
63088;BME280;49173;43.164;27.786;2023-09-30T05:33:24;100604.84;;;19.97;47.94
63088;BME280;49173;43.164;27.786;2023-09-30T05:35:49;100612.16;;;19.96;47.63
63088;BME280;49173;43.164;27.786;2023-09-30T05:38:15;100611.41;;;19.94;47.24
63088;BME280;49173;43.164;27.786;2023-09-30T05:40:42;100613.28;;;19.94;47.77
63088;BME280;49173;43.164;27.786;2023-09-30T05:43:09;100614.59;;;19.99;47.05
63088;BME280;49173;43.164;27.786;2023-09-30T05:45:39;100615.34;;;20.01;47.59
63088;BME280;49173;43.164;27.786;2023-09-30T05:48:09;100612.34;;;20.05;47.33
63088;BME280;49173;43.164;27.786;2023-09-30T05:50:35;100615.22;;;20.13;47.84
63088;BME280;49173;43.164;27.786;2023-09-30T05:53:02;100614.97;;;20.25;47.67
63088;BME280;49173;43.164;27.786;2023-09-30T05:58:02;100617.84;;;20.43;46.81
63088;BME280;49173;43.164;27.786;2023-09-30T06:00:28;100615.75;;;20.47;47.08
63088;BME280;49173;43.164;27.786;2023-09-30T06:02:59;100618.16;;;20.50;47.07
63088;BME280;49173;43.164;27.786;2023-09-30T06:05:25;100619.78;;;20.52;46.79
63088;BME280;49173;43.164;27.786;2023-09-30T06:08:01;100620.19;;;20.57;47.30
63088;BME280;49173;43.164;27.786;2023-09-30T06:10:28;100621.63;;;20.62;47.14
63088;BME280;49173;43.164;27.786;2023-09-30T06:12:56;100619.34;;;20.67;47.43
63088;BME280;49173;43.164;27.786;2023-09-30T06:15:23;100617.19;;;20.70;47.22
63088;BME280;49173;43.164;27.786;2023-09-30T06:17:52;100624.25;;;20.73;47.14
63088;BME280;49173;43.164;27.786;2023-09-30T06:20:21;100627.09;;;20.71;47.05
63088;BME280;49173;43.164;27.786;2023-09-30T06:22:56;100626.22;;;20.71;47.15
63088;BME280;49173;43.164;27.786;2023-09-30T06:25:23;100624.25;;;20.73;47.48
63088;BME280;49173;43.164;27.786;2023-09-30T06:27:54;100618.91;;;20.81;47.74
63088;BME280;49173;43.164;27.786;2023-09-30T06:30:24;100627.25;;;20.89;47.51
63088;BME280;49173;43.164;27.786;2023-09-30T06:33:10;100613.03;;;20.95;47.35
63088;BME280;49173;43.164;27.786;2023-09-30T06:35:40;100617.03;;;21.01;47.33
63088;BME280;49173;43.164;27.786;2023-09-30T06:38:19;100613.47;;;21.00;47.79
63088;BME280;49173;43.164;27.786;2023-09-30T06:40:46;100620.34;;;21.04;48.05
63088;BME280;49173;43.164;27.786;2023-09-30T06:43:14;100614.44;;;21.09;48.31
63088;BME280;49173;43.164;27.786;2023-09-30T06:45:43;100609.53;;;21.12;48.42
63088;BME280;49173;43.164;27.786;2023-09-30T06:48:11;100620.72;;;21.19;48.46
63088;BME280;49173;43.164;27.786;2023-09-30T06:50:39;100611.41;;;21.22;48.69
63088;BME280;49173;43.164;27.786;2023-09-30T06:53:08;100616.00;;;21.31;48.35
63088;BME280;49173;43.164;27.786;2023-09-30T06:55:37;100615.44;;;21.37;47.94
63088;BME280;49173;43.164;27.786;2023-09-30T06:58:03;100611.84;;;21.36;47.93
63088;BME280;49173;43.164;27.786;2023-09-30T07:00:30;100613.09;;;21.42;48.47
63088;BME280;49173;43.164;27.786;2023-09-30T07:03:05;100613.66;;;21.46;48.29
63088;BME280;49173;43.164;27.786;2023-09-30T07:05:31;100609.06;;;21.46;48.10
63088;BME280;49173;43.164;27.786;2023-09-30T07:07:56;100611.91;;;21.54;48.15
63088;BME280;49173;43.164;27.786;2023-09-30T07:10:22;100605.75;;;21.52;47.94
63088;BME280;49173;43.164;27.786;2023-09-30T07:12:48;100611.66;;;21.48;48.19
63088;BME280;49173;43.164;27.786;2023-09-30T07:15:14;100621.44;;;21.50;48.07
63088;BME280;49173;43.164;27.786;2023-09-30T07:17:43;100621.00;;;21.45;48.04
63088;BME280;49173;43.164;27.786;2023-09-30T07:20:09;100622.03;;;21.44;47.62
63088;BME280;49173;43.164;27.786;2023-09-30T07:22:35;100618.69;;;21.50;48.04
63088;BME280;49173;43.164;27.786;2023-09-30T07:25:01;100621.97;;;21.54;47.39
63088;BME280;49173;43.164;27.786;2023-09-30T07:27:27;100615.50;;;21.55;47.62
63088;BME280;49173;43.164;27.786;2023-09-30T07:29:53;100612.59;;;21.66;47.06
63088;BME280;49173;43.164;27.786;2023-09-30T07:32:19;100617.75;;;21.69;46.99
63088;BME280;49173;43.164;27.786;2023-09-30T07:34:50;100615.13;;;21.77;47.68
63088;BME280;49173;43.164;27.786;2023-09-30T07:37:17;100609.63;;;21.87;47.84
63088;BME280;49173;43.164;27.786;2023-09-30T07:39:44;100618.19;;;22.02;47.52
63088;BME280;49173;43.164;27.786;2023-09-30T07:42:10;100621.31;;;22.16;46.50
63088;BME280;49173;43.164;27.786;2023-09-30T07:44:36;100618.03;;;22.31;46.53
63088;BME280;49173;43.164;27.786;2023-09-30T07:47:03;100612.22;;;22.43;45.02
63088;BME280;49173;43.164;27.786;2023-09-30T07:49:32;100627.06;;;22.59;44.04
63088;BME280;49173;43.164;27.786;2023-09-30T07:51:58;100623.09;;;22.71;43.40
63088;BME280;49173;43.164;27.786;2023-09-30T07:54:24;100611.34;;;22.79;42.50
63088;BME280;49173;43.164;27.786;2023-09-30T07:56:50;100615.34;;;22.84;42.58
63088;BME280;49173;43.164;27.786;2023-09-30T07:59:16;100618.94;;;22.85;42.33
63088;BME280;49173;43.164;27.786;2023-09-30T08:01:43;100620.53;;;22.87;42.22
63088;BME280;49173;43.164;27.786;2023-09-30T08:04:09;100624.53;;;22.93;42.47
63088;BME280;49173;43.164;27.786;2023-09-30T08:06:34;100623.03;;;22.98;41.89
63088;BME280;49173;43.164;27.786;2023-09-30T08:09:00;100613.31;;;23.04;41.72
63088;BME280;49173;43.164;27.786;2023-09-30T08:11:31;100608.91;;;23.11;40.75
63088;BME280;49173;43.164;27.786;2023-09-30T08:13:58;100618.53;;;23.15;40.46
63088;BME280;49173;43.164;27.786;2023-09-30T08:16:24;100608.84;;;23.21;39.73
63088;BME280;49173;43.164;27.786;2023-09-30T08:18:50;100607.16;;;23.28;39.48
63088;BME280;49173;43.164;27.786;2023-09-30T08:21:15;100599.47;;;23.32;39.32
63088;BME280;49173;43.164;27.786;2023-09-30T08:23:41;100605.81;;;23.32;39.20
63088;BME280;49173;43.164;27.786;2023-09-30T08:26:08;100602.59;;;23.37;39.64
63088;BME280;49173;43.164;27.786;2023-09-30T08:28:34;100604.66;;;23.35;38.86
63088;BME280;49173;43.164;27.786;2023-09-30T08:31:04;100602.44;;;23.38;38.89
63088;BME280;49173;43.164;27.786;2023-09-30T08:33:30;100600.97;;;23.52;39.08
63088;BME280;49173;43.164;27.786;2023-09-30T08:36:05;100600.41;;;23.66;38.45
63088;BME280;49173;43.164;27.786;2023-09-30T08:38:37;100598.56;;;23.75;38.00
63088;BME280;49173;43.164;27.786;2023-09-30T08:41:04;100606.84;;;23.83;37.37
63088;BME280;49173;43.164;27.786;2023-09-30T08:43:30;100597.03;;;23.80;37.72
63088;BME280;49173;43.164;27.786;2023-09-30T08:46:02;100595.16;;;23.81;38.03
63088;BME280;49173;43.164;27.786;2023-09-30T08:48:28;100596.03;;;23.81;37.54
63088;BME280;49173;43.164;27.786;2023-09-30T08:51:22;100600.81;;;23.79;37.56
63088;BME280;49173;43.164;27.786;2023-09-30T08:54:24;100596.75;;;23.83;37.84
63088;BME280;49173;43.164;27.786;2023-09-30T08:57:00;100592.63;;;23.88;36.94
63088;BME280;49173;43.164;27.786;2023-09-30T08:59:31;100592.63;;;23.88;37.39
63088;BME280;49173;43.164;27.786;2023-09-30T09:01:57;100596.78;;;24.00;37.04
63088;BME280;49173;43.164;27.786;2023-09-30T09:04:24;100591.03;;;24.19;36.99
63088;BME280;49173;43.164;27.786;2023-09-30T09:06:51;100589.16;;;24.28;36.32
63088;BME280;49173;43.164;27.786;2023-09-30T09:09:18;100594.72;;;24.44;35.58
63088;BME280;49173;43.164;27.786;2023-09-30T09:11:48;100587.19;;;24.46;35.45
63088;BME280;49173;43.164;27.786;2023-09-30T09:14:14;100585.31;;;24.47;35.50
63088;BME280;49173;43.164;27.786;2023-09-30T09:16:53;100589.78;;;24.48;35.87
63088;BME280;49173;43.164;27.786;2023-09-30T09:19:19;100582.03;;;24.51;35.75
63088;BME280;49173;43.164;27.786;2023-09-30T09:22:00;100576.91;;;24.56;35.70
63088;BME280;49173;43.164;27.786;2023-09-30T09:24:30;100582.22;;;24.66;36.01
63088;BME280;49173;43.164;27.786;2023-09-30T09:27:10;100581.03;;;24.77;34.72
63088;BME280;49173;43.164;27.786;2023-09-30T09:29:38;100575.22;;;24.88;34.92
63088;BME280;49173;43.164;27.786;2023-09-30T09:32:16;100571.25;;;24.99;34.13
63088;BME280;49173;43.164;27.786;2023-09-30T09:34:44;100580.19;;;25.01;34.14
63088;BME280;49173;43.164;27.786;2023-09-30T09:37:20;100572.66;;;25.03;33.91
63088;BME280;49173;43.164;27.786;2023-09-30T09:39:57;100570.91;;;25.02;34.48
63088;BME280;49173;43.164;27.786;2023-09-30T09:42:25;100565.41;;;25.02;34.79
63088;BME280;49173;43.164;27.786;2023-09-30T09:44:56;100562.66;;;25.02;35.33
63088;BME280;49173;43.164;27.786;2023-09-30T09:47:23;100575.38;;;25.03;35.59
63088;BME280;49173;43.164;27.786;2023-09-30T09:49:53;100562.38;;;25.05;34.02
63088;BME280;49173;43.164;27.786;2023-09-30T09:52:21;100573.00;;;25.08;34.09
63088;BME280;49173;43.164;27.786;2023-09-30T09:54:47;100568.88;;;25.12;33.32
63088;BME280;49173;43.164;27.786;2023-09-30T09:58:08;100556.84;;;25.13;34.06
63088;BME280;49173;43.164;27.786;2023-09-30T10:00:15;100557.72;;;25.13;33.88
63088;BME280;49173;43.164;27.786;2023-09-30T10:06:15;100565.59;;;25.25;33.96
63088;BME280;49173;43.164;27.786;2023-09-30T10:09:01;100566.94;;;25.29;33.99
63088;BME280;49173;43.164;27.786;2023-09-30T10:12:01;100555.81;;;25.30;33.49
63088;BME280;49173;43.164;27.786;2023-09-30T10:14:33;100546.53;;;25.31;33.11
63088;BME280;49173;43.164;27.786;2023-09-30T10:16:59;100538.59;;;25.36;33.99
63088;BME280;49173;43.164;27.786;2023-09-30T10:19:27;100544.78;;;25.38;32.81
63088;BME280;49173;43.164;27.786;2023-09-30T10:24:46;100539.31;;;25.38;34.00
63088;BME280;49173;43.164;27.786;2023-09-30T10:30:05;100526.19;;;25.48;32.87
63088;BME280;49173;43.164;27.786;2023-09-30T10:35:20;100546.47;;;25.47;32.39
63088;BME280;49173;43.164;27.786;2023-09-30T10:37:47;100535.84;;;25.44;33.10
63088;BME280;49173;43.164;27.786;2023-09-30T10:40:32;100539.59;;;25.43;33.53
63088;BME280;49173;43.164;27.786;2023-09-30T10:42:58;100531.34;;;25.43;34.06
63088;BME280;49173;43.164;27.786;2023-09-30T10:45:43;100532.03;;;25.54;33.85
63088;BME280;49173;43.164;27.786;2023-09-30T10:51:14;100522.03;;;25.61;33.69
63088;BME280;49173;43.164;27.786;2023-09-30T10:53:51;100528.91;;;25.57;32.43
63088;BME280;49173;43.164;27.786;2023-09-30T10:56:20;100538.72;;;25.59;32.33
63088;BME280;49173;43.164;27.786;2023-09-30T10:58:51;100523.09;;;25.60;32.45
63088;BME280;49173;43.164;27.786;2023-09-30T11:01:18;100521.19;;;25.60;32.92
63088;BME280;49173;43.164;27.786;2023-09-30T11:03:45;100540.25;;;25.62;33.36
63088;BME280;49173;43.164;27.786;2023-09-30T11:06:15;100521.34;;;25.67;32.67
63088;BME280;49173;43.164;27.786;2023-09-30T11:08:57;100515.84;;;25.67;32.72
63088;BME280;49173;43.164;27.786;2023-09-30T11:11:37;100521.66;;;25.64;33.11
63088;BME280;49173;43.164;27.786;2023-09-30T11:14:37;100515.84;;;25.67;33.04
63088;BME280;49173;43.164;27.786;2023-09-30T11:17:03;100521.34;;;25.67;33.17
63088;BME280;49173;43.164;27.786;2023-09-30T11:19:47;100513.41;;;25.72;33.25
63088;BME280;49173;43.164;27.786;2023-09-30T11:22:15;100506.69;;;25.83;33.19
63088;BME280;49173;43.164;27.786;2023-09-30T11:24:41;100502.66;;;25.93;33.12
63088;BME280;49173;43.164;27.786;2023-09-30T11:27:07;100507.09;;;26.02;33.50
63088;BME280;49173;43.164;27.786;2023-09-30T11:29:34;100506.53;;;26.07;33.80
63088;BME280;49173;43.164;27.786;2023-09-30T11:32:00;100495.72;;;26.06;33.77
63088;BME280;49173;43.164;27.786;2023-09-30T11:34:34;100496.94;;;26.03;33.87
63088;BME280;49173;43.164;27.786;2023-09-30T11:37:04;100495.53;;;26.07;33.70
63088;BME280;49173;43.164;27.786;2023-09-30T11:39:31;100494.00;;;26.05;33.83
63088;BME280;49173;43.164;27.786;2023-09-30T11:42:00;100497.13;;;26.01;33.14
63088;BME280;49173;43.164;27.786;2023-09-30T11:44:26;100506.50;;;26.15;33.25
63088;BME280;49173;43.164;27.786;2023-09-30T11:47:00;100493.22;;;26.19;33.87
63088;BME280;49173;43.164;27.786;2023-09-30T11:52:27;100488.03;;;26.24;34.04
63088;BME280;49173;43.164;27.786;2023-09-30T11:54:53;100488.16;;;26.31;34.15
63088;BME280;49173;43.164;27.786;2023-09-30T11:57:19;100482.84;;;26.29;33.53
63088;BME280;49173;43.164;27.786;2023-09-30T11:59:46;100474.88;;;26.34;32.88
63088;BME280;49173;43.164;27.786;2023-09-30T12:02:14;100475.91;;;26.33;33.25
63088;BME280;49173;43.164;27.786;2023-09-30T12:11:06;100472.19;;;26.49;34.32
63088;BME280;49173;43.164;27.786;2023-09-30T12:13:36;100470.59;;;26.54;33.33
63088;BME280;49173;43.164;27.786;2023-09-30T12:16:05;100477.66;;;26.57;33.80
63088;BME280;49173;43.164;27.786;2023-09-30T12:18:40;100465.28;;;26.53;34.65
63088;BME280;49173;43.164;27.786;2023-09-30T12:21:19;100467.06;;;26.46;34.74
63088;BME280;49173;43.164;27.786;2023-09-30T12:23:47;100460.72;;;26.45;34.41
63088;BME280;49173;43.164;27.786;2023-09-30T12:26:15;100468.31;;;26.43;33.48
63088;BME280;49173;43.164;27.786;2023-09-30T12:28:48;100480.34;;;26.42;34.37
63088;BME280;49173;43.164;27.786;2023-09-30T12:31:14;100463.47;;;26.45;33.68
63088;BME280;49173;43.164;27.786;2023-09-30T12:33:44;100460.72;;;26.45;35.51
63088;BME280;49173;43.164;27.786;2023-09-30T12:36:09;100471.06;;;26.43;37.47
63088;BME280;49173;43.164;27.786;2023-09-30T12:38:41;100458.00;;;26.37;40.17
63088;BME280;49173;43.164;27.786;2023-09-30T12:41:07;100459.56;;;26.40;41.32
63088;BME280;49173;43.164;27.786;2023-09-30T12:43:39;100453.50;;;26.44;42.32
63088;BME280;49173;43.164;27.786;2023-09-30T12:46:18;100453.19;;;26.39;43.32
63088;BME280;49173;43.164;27.786;2023-09-30T12:48:48;100451.28;;;26.40;43.31
63088;BME280;49173;43.164;27.786;2023-09-30T12:51:14;100443.19;;;26.38;36.21
63088;BME280;49173;43.164;27.786;2023-09-30T12:53:43;100445.63;;;26.33;35.11
63088;BME280;49173;43.164;27.786;2023-09-30T12:56:16;100451.53;;;26.30;34.28
63088;BME280;49173;43.164;27.786;2023-09-30T12:58:49;100447.41;;;26.26;36.72
63088;BME280;49173;43.164;27.786;2023-09-30T13:01:21;100435.75;;;26.24;35.99
63088;BME280;49173;43.164;27.786;2023-09-30T13:03:48;100438.84;;;26.21;34.98
63088;BME280;49173;43.164;27.786;2023-09-30T13:06:26;100434.19;;;26.21;34.37
63088;BME280;49173;43.164;27.786;2023-09-30T13:08:56;100427.19;;;26.19;34.88
63088;BME280;49173;43.164;27.786;2023-09-30T13:11:27;100424.97;;;26.14;34.88
63088;BME280;49173;43.164;27.786;2023-09-30T13:13:55;100425.84;;;26.15;34.54